Pagrindinis puslapis
METAR-TAF:

METAR-TAF

Oro uostai :

Togiak, Aliaska, Jungtinės Amerikos Valstijos

platuma: 59-03N, ilguma: 160-24W, Aukštis: 6 m

Dabartinis oras

Ataskaita buvo paskelbta 41 minutes, ne 20:56 UTC
Vėjas 14 kt iš Šiaurės Rytų su gūsio iki 21 kt
Temperatūra 4°C
Drėgmė 65%
Slėgis 1017 hPa
Matomumas: 16.1 km
Apsiniaukę ne aukštis 6500 ft

METAR: PATG 222056Z AUTO 05014G21KT 10SM OVC065 04/M02 A3002 RMK AO2 SLP260 T00441022 56018

Laikas: 13:37 (21:37 UTC)


TAF: trūkstamas

Orai ataskaitas ir orų prognozės (METAR, TAF).

turimą stotys yra geltonos ir raudonos taškus žemėlapyje.

Perkelti pele per norėdami pamatyti stoties vardą.

Tada spustelėkite, norėdami matyti oro stebėjimo ir prognozės.

Norėdami pakeisti žemėlapį: spustelėkite ant žalios mygtukų su juodo kryžiaus žemyn,; žalią mygtuką su brūkšneliu, jei norite nutolinti; arba žalių rodyklių gretimoms žemėlapius.


METAR-TAF: